createdAt,value
2019-02-07T00:00:23.685Z,-2.26
2019-02-07T00:01:24.158Z,-2.25
2019-02-07T00:02:25.362Z,-2.26
2019-02-07T00:03:23.765Z,-2.26
2019-02-07T00:04:24.606Z,-2.25
2019-02-07T00:05:24.289Z,-2.25
2019-02-07T00:06:25.526Z,-2.22
2019-02-07T00:07:23.839Z,-2.28
2019-02-07T00:08:24.290Z,-2.26
2019-02-07T00:09:23.751Z,-2.25
2019-02-07T00:10:23.694Z,-2.25
2019-02-07T00:11:24.141Z,-2.24
2019-02-07T00:12:24.055Z,-2.25
2019-02-07T00:13:24.043Z,-2.25
2019-02-07T00:14:24.060Z,-2.26
2019-02-07T00:15:24.148Z,-2.22
2019-02-07T00:16:23.700Z,-2.25
2019-02-07T00:17:25.154Z,-2.23
2019-02-07T00:18:23.714Z,-2.23
2019-02-07T00:19:24.082Z,-2.23
2019-02-07T00:20:23.777Z,-2.24
2019-02-07T00:21:23.888Z,-2.2
2019-02-07T00:22:23.770Z,-2.26
2019-02-07T00:23:23.872Z,-2.25
2019-02-07T00:24:23.645Z,-2.24
2019-02-07T00:25:25.411Z,-2.2
2019-02-07T00:26:24.527Z,-2.23
2019-02-07T00:27:23.677Z,-2.24
2019-02-07T00:28:23.924Z,-2.23
2019-02-07T00:29:23.951Z,-2.24
2019-02-07T00:30:24.148Z,-2.22
2019-02-07T00:31:24.691Z,-2.23
2019-02-07T00:32:23.860Z,-2.2
2019-02-07T00:33:26.963Z,-2.3
2019-02-07T00:34:24.366Z,-2.24
2019-02-07T00:35:24.508Z,-2.22
2019-02-07T00:36:23.690Z,-2.23
2019-02-07T00:37:24.090Z,-2.22
2019-02-07T00:38:23.667Z,-2.2
2019-02-07T00:39:24.509Z,-2.23
2019-02-07T00:40:24.000Z,-2.24
2019-02-07T00:41:25.208Z,-2.26
2019-02-07T00:42:24.330Z,-2.3
2019-02-07T00:43:23.717Z,-2.29
2019-02-07T00:44:23.827Z,-2.32
2019-02-07T00:45:23.605Z,-2.3
2019-02-07T00:46:23.851Z,-2.32
2019-02-07T00:47:24.152Z,-2.29
2019-02-07T00:48:23.730Z,-2.31
2019-02-07T00:49:26.797Z,-2.33
2019-02-07T00:50:24.622Z,-2.32
2019-02-07T00:51:23.637Z,-2.28
2019-02-07T00:52:24.692Z,-2.29
2019-02-07T00:53:23.722Z,-2.29
2019-02-07T00:54:24.511Z,-2.23
2019-02-07T00:55:23.649Z,-2.26
2019-02-07T00:56:24.795Z,-2.3
2019-02-07T00:57:23.785Z,-2.28
2019-02-07T00:58:23.930Z,-2.24
2019-02-07T00:59:23.925Z,-2.31
2019-02-07T01:00:23.600Z,-2.25
2019-02-07T01:01:23.726Z,-2.28
2019-02-07T01:02:23.848Z,-2.22
2019-02-07T01:03:25.442Z,-2.26
2019-02-07T01:04:25.054Z,-2.28
2019-02-07T01:05:23.975Z,-2.27
2019-02-07T01:06:23.593Z,-2.29
2019-02-07T01:07:23.732Z,-2.26
2019-02-07T01:08:23.770Z,-2.28
2019-02-07T01:09:23.688Z,-2.32
2019-02-07T01:10:24.004Z,-2.31
2019-02-07T01:11:23.610Z,-2.3
2019-02-07T01:12:25.378Z,-2.36
2019-02-07T01:13:23.614Z,-2.36
2019-02-07T01:14:23.740Z,-2.35
2019-02-07T01:15:23.773Z,-2.35
2019-02-07T01:16:24.350Z,-2.33
2019-02-07T01:17:23.613Z,-2.34
2019-02-07T01:18:24.148Z,-2.32
2019-02-07T01:19:23.666Z,-2.31
2019-02-07T01:20:23.622Z,-2.3
2019-02-07T01:21:24.476Z,-2.32
2019-02-07T01:22:23.664Z,-2.29
2019-02-07T01:23:23.899Z,-2.33
2019-02-07T01:24:23.904Z,-2.28
2019-02-07T01:25:23.723Z,-2.34
2019-02-07T01:26:23.660Z,-2.31
2019-02-07T01:27:24.899Z,-2.29
2019-02-07T01:28:25.421Z,-2.3
2019-02-07T01:29:23.564Z,-2.35
2019-02-07T01:30:23.711Z,-2.32
2019-02-07T01:31:23.828Z,-2.33
2019-02-07T01:32:23.535Z,-2.3
2019-02-07T01:33:23.544Z,-2.31
2019-02-07T01:34:23.941Z,-2.33
2019-02-07T01:35:25.359Z,-2.33
2019-02-07T01:36:23.605Z,-2.36
2019-02-07T01:37:23.601Z,-2.34
2019-02-07T01:38:23.665Z,-2.34
2019-02-07T01:39:23.686Z,-2.38
2019-02-07T01:40:24.666Z,-2.37
2019-02-07T01:41:23.556Z,-2.39
2019-02-07T01:42:24.408Z,-2.36
2019-02-07T01:43:24.109Z,-2.41
2019-02-07T01:44:24.321Z,-2.45
2019-02-07T01:45:23.615Z,-2.44
2019-02-07T01:46:24.236Z,-2.43
2019-02-07T01:47:23.678Z,-2.44
2019-02-07T01:48:23.516Z,-2.4
2019-02-07T01:49:24.058Z,-2.45
2019-02-07T01:50:24.683Z,-2.45
2019-02-07T01:51:25.369Z,-2.41
2019-02-07T01:52:24.079Z,-2.39
2019-02-07T01:53:24.079Z,-2.41
2019-02-07T01:54:23.978Z,-2.41
2019-02-07T01:55:24.306Z,-2.44
2019-02-07T01:56:25.327Z,-2.41
2019-02-07T01:57:23.745Z,-2.37
2019-02-07T01:58:25.612Z,-2.38
2019-02-07T01:59:23.576Z,-2.34
2019-02-07T02:00:23.728Z,-2.36
2019-02-07T02:01:25.362Z,-2.39
2019-02-07T02:02:25.362Z,-2.35
2019-02-07T02:03:23.626Z,-2.4
2019-02-07T02:04:23.941Z,-2.35
2019-02-07T02:05:23.750Z,-2.39
2019-02-07T02:06:26.074Z,-2.41
2019-02-07T02:07:23.504Z,-2.39
2019-02-07T02:08:23.780Z,-2.39
2019-02-07T02:09:23.893Z,-2.46
2019-02-07T02:10:23.530Z,-2.44
2019-02-07T02:11:23.512Z,-2.44
2019-02-07T02:12:23.801Z,-2.44
2019-02-07T02:13:24.305Z,-2.45
2019-02-07T02:14:24.018Z,-2.46
2019-02-07T02:15:25.599Z,-2.41
2019-02-07T02:16:24.384Z,-2.44
2019-02-07T02:17:23.596Z,-2.43
2019-02-07T02:18:23.833Z,-2.45
2019-02-07T02:19:24.130Z,-2.43
2019-02-07T02:20:23.509Z,-2.42
2019-02-07T02:21:24.329Z,-2.45
2019-02-07T02:22:23.847Z,-2.45
2019-02-07T02:23:23.525Z,-2.48
2019-02-07T02:24:24.070Z,-2.45
2019-02-07T02:25:23.471Z,-2.48
2019-02-07T02:26:23.527Z,-2.45
2019-02-07T02:27:23.599Z,-2.45
2019-02-07T02:28:23.572Z,-2.41
2019-02-07T02:29:24.846Z,-2.5
2019-02-07T02:30:23.516Z,-2.48
2019-02-07T02:31:23.839Z,-2.47
2019-02-07T02:32:23.945Z,-2.45
2019-02-07T02:33:24.143Z,-2.51
2019-02-07T02:34:23.706Z,-2.45
2019-02-07T02:35:23.901Z,-2.44
2019-02-07T02:36:23.449Z,-2.46
2019-02-07T02:37:23.467Z,-2.43
2019-02-07T02:38:23.579Z,-2.47
2019-02-07T02:39:23.683Z,-2.46
2019-02-07T02:40:23.565Z,-2.46
2019-02-07T02:41:23.320Z,-2.46
2019-02-07T02:42:23.271Z,-2.46
2019-02-07T02:43:23.799Z,-2.45
2019-02-07T02:44:25.198Z,-2.43
2019-02-07T02:45:38.157Z,-2.46
2019-02-07T02:46:23.295Z,-2.46
2019-02-07T02:47:23.504Z,-2.45
2019-02-07T02:48:23.451Z,-2.47
2019-02-07T02:49:23.982Z,-2.44
2019-02-07T02:50:23.429Z,-2.45
2019-02-07T02:51:24.052Z,-2.46
2019-02-07T02:52:24.943Z,-2.48
2019-02-07T02:53:23.499Z,-2.44
2019-02-07T02:54:23.428Z,-2.46
2019-02-07T02:55:23.486Z,-2.48
2019-02-07T02:56:23.675Z,-2.51
2019-02-07T02:57:23.590Z,-2.41
2019-02-07T02:58:23.680Z,-2.46
2019-02-07T02:59:23.416Z,-2.46
2019-02-07T03:00:23.474Z,-2.45
2019-02-07T03:01:23.753Z,-2.49
2019-02-07T03:02:23.816Z,-2.5
2019-02-07T03:03:23.743Z,-2.49
2019-02-07T03:04:23.641Z,-2.53
2019-02-07T03:05:23.475Z,-2.49
2019-02-07T03:06:23.409Z,-2.55
2019-02-07T03:07:23.401Z,-2.54
2019-02-07T03:08:23.662Z,-2.56
2019-02-07T03:09:23.510Z,-2.54
2019-02-07T03:10:23.774Z,-2.51
2019-02-07T03:11:23.543Z,-2.51
2019-02-07T03:12:23.820Z,-2.52
2019-02-07T03:13:23.423Z,-2.48
2019-02-07T03:14:23.396Z,-2.53
2019-02-07T03:15:24.376Z,-2.5
2019-02-07T03:16:23.695Z,-2.49
2019-02-07T03:17:23.498Z,-2.52
2019-02-07T03:18:23.712Z,-2.45
2019-02-07T03:19:23.721Z,-2.48
2019-02-07T03:20:23.734Z,-2.43
2019-02-07T03:21:23.419Z,-2.48
2019-02-07T03:22:23.557Z,-2.48
2019-02-07T03:23:24.941Z,-2.47
2019-02-07T03:24:23.790Z,-2.47
2019-02-07T03:25:23.415Z,-2.51
2019-02-07T03:26:23.466Z,-2.51
2019-02-07T03:27:23.767Z,-2.49
2019-02-07T03:28:23.883Z,-2.49
2019-02-07T03:29:23.800Z,-2.48
2019-02-07T03:30:23.817Z,-2.48
2019-02-07T03:31:24.893Z,-2.45
2019-02-07T03:32:23.574Z,-2.45
2019-02-07T03:33:24.329Z,-2.5
2019-02-07T03:34:24.127Z,-2.48
2019-02-07T03:35:23.446Z,-2.48
2019-02-07T03:36:23.739Z,-2.49
2019-02-07T03:37:23.612Z,-2.47
2019-02-07T03:38:23.634Z,-2.48
2019-02-07T03:39:23.547Z,-2.47
2019-02-07T03:40:24.181Z,-2.5
2019-02-07T03:41:23.658Z,-2.48
2019-02-07T03:42:23.568Z,-2.49
2019-02-07T03:43:23.445Z,-2.52
2019-02-07T03:44:23.687Z,-2.53
2019-02-07T03:45:23.442Z,-2.53
2019-02-07T03:46:24.478Z,-2.53
2019-02-07T03:47:23.701Z,-2.51
2019-02-07T03:48:25.213Z,-2.5
2019-02-07T03:49:23.832Z,-2.51
2019-02-07T03:50:23.368Z,-2.48
2019-02-07T03:51:23.345Z,-2.53
2019-02-07T03:52:25.209Z,-2.48
2019-02-07T03:53:24.141Z,-2.45
2019-02-07T03:54:25.041Z,-2.53
2019-02-07T03:55:25.196Z,-2.49
2019-02-07T03:56:23.388Z,-2.53
2019-02-07T03:57:23.400Z,-2.51
2019-02-07T03:58:24.699Z,-2.55
2019-02-07T03:59:23.545Z,-2.57
2019-02-07T04:00:23.325Z,-2.6
2019-02-07T04:01:23.586Z,-2.61
2019-02-07T04:02:25.999Z,-2.58
2019-02-07T04:03:23.435Z,-2.59
2019-02-07T04:04:23.487Z,-2.59
2019-02-07T04:05:23.489Z,-2.61
2019-02-07T04:06:23.485Z,-2.56
2019-02-07T04:07:23.335Z,-2.61
2019-02-07T04:08:23.322Z,-2.58
2019-02-07T04:09:23.744Z,-2.58
2019-02-07T04:10:23.382Z,-2.56
2019-02-07T04:11:23.500Z,-2.54
2019-02-07T04:12:23.297Z,-2.55
2019-02-07T04:13:23.302Z,-2.56
2019-02-07T04:14:23.679Z,-2.53
2019-02-07T04:15:23.326Z,-2.56
2019-02-07T04:16:23.296Z,-2.59
2019-02-07T04:17:23.919Z,-2.57
2019-02-07T04:18:23.314Z,-2.6
2019-02-07T04:19:23.835Z,-2.57
2019-02-07T04:20:23.334Z,-2.57
2019-02-07T04:21:23.583Z,-2.55
2019-02-07T04:22:23.526Z,-2.56
2019-02-07T04:23:23.390Z,-2.58
2019-02-07T04:24:23.430Z,-2.59
2019-02-07T04:25:24.529Z,-2.59
2019-02-07T04:26:24.180Z,-2.56
2019-02-07T04:27:23.448Z,-2.61
2019-02-07T04:28:23.701Z,-2.62
2019-02-07T04:29:23.866Z,-2.61
2019-02-07T04:30:23.332Z,-2.6
2019-02-07T04:31:23.760Z,-2.61
2019-02-07T04:32:23.378Z,-2.6
2019-02-07T04:33:24.581Z,-2.63
2019-02-07T04:34:23.301Z,-2.63
2019-02-07T04:35:23.372Z,-2.6
2019-02-07T04:36:23.929Z,-2.59
2019-02-07T04:37:24.710Z,-2.61
2019-02-07T04:38:23.394Z,-2.57
2019-02-07T04:39:23.344Z,-2.6
2019-02-07T04:40:23.371Z,-2.62
2019-02-07T04:41:24.838Z,-2.63
2019-02-07T04:42:23.343Z,-2.6
2019-02-07T04:43:23.561Z,-2.64
2019-02-07T04:44:23.242Z,-2.57
2019-02-07T04:45:23.278Z,-2.63
2019-02-07T04:46:27.696Z,-2.63
2019-02-07T04:47:23.603Z,-2.58
2019-02-07T04:48:23.589Z,-2.62
2019-02-07T04:49:24.484Z,-2.64
2019-02-07T04:50:23.638Z,-2.67
2019-02-07T04:51:23.252Z,-2.61
2019-02-07T04:52:23.385Z,-2.64
2019-02-07T04:53:23.619Z,-2.6
2019-02-07T04:54:23.270Z,-2.6
2019-02-07T04:55:23.431Z,-2.56
2019-02-07T04:56:23.538Z,-2.53
2019-02-07T04:57:23.957Z,-2.56
2019-02-07T04:58:23.293Z,-2.53
2019-02-07T04:59:23.962Z,-2.57
2019-02-07T05:00:23.490Z,-2.53
2019-02-07T05:01:23.399Z,-2.6
2019-02-07T05:02:23.303Z,-2.57
2019-02-07T05:03:23.679Z,-2.57
2019-02-07T05:04:24.272Z,-2.59
2019-02-07T05:05:24.175Z,-2.59
2019-02-07T05:06:23.378Z,-2.54
2019-02-07T05:07:23.609Z,-2.54
2019-02-07T05:08:23.266Z,-2.59
2019-02-07T05:09:23.268Z,-2.59
2019-02-07T05:10:23.721Z,-2.56
2019-02-07T05:11:23.255Z,-2.56
2019-02-07T05:12:24.836Z,-2.54
2019-02-07T05:13:23.759Z,-2.54
2019-02-07T05:14:23.450Z,-2.53
2019-02-07T05:15:23.254Z,-2.57
2019-02-07T05:16:23.215Z,-2.57
2019-02-07T05:17:23.469Z,-2.55
2019-02-07T05:18:23.381Z,-2.55
2019-02-07T05:19:23.690Z,-2.59
2019-02-07T05:20:23.184Z,-2.56
2019-02-07T05:21:23.257Z,-2.53
2019-02-07T05:22:23.597Z,-2.53
2019-02-07T05:23:23.707Z,-2.56
2019-02-07T05:24:23.736Z,-2.6
2019-02-07T05:25:23.209Z,-2.55
2019-02-07T05:26:23.236Z,-2.57
2019-02-07T05:27:24.934Z,-2.55
2019-02-07T05:28:23.026Z,-2.56
2019-02-07T05:29:25.050Z,-2.57
2019-02-07T05:30:23.391Z,-2.6
2019-02-07T05:31:23.375Z,-2.57
2019-02-07T05:32:23.253Z,-2.59
2019-02-07T05:33:23.236Z,-2.62
2019-02-07T05:34:23.239Z,-2.57
2019-02-07T05:35:25.500Z,-2.62
2019-02-07T05:36:23.506Z,-2.59
2019-02-07T05:37:23.270Z,-2.59
2019-02-07T05:38:24.034Z,-2.61
2019-02-07T05:39:23.198Z,-2.61
2019-02-07T05:40:23.464Z,-2.62
2019-02-07T05:41:23.014Z,-2.62
2019-02-07T05:42:23.406Z,-2.62
2019-02-07T05:43:23.672Z,-2.59
2019-02-07T05:44:23.256Z,-2.61
2019-02-07T05:45:23.559Z,-2.6
2019-02-07T05:46:23.333Z,-2.61
2019-02-07T05:47:23.442Z,-2.58
2019-02-07T05:48:23.652Z,-2.63
2019-02-07T05:49:23.230Z,-2.62
2019-02-07T05:50:25.024Z,-2.61
2019-02-07T05:51:23.578Z,-2.64
2019-02-07T05:52:23.594Z,-2.59
2019-02-07T05:53:25.005Z,-2.62
2019-02-07T05:54:23.407Z,-2.65
2019-02-07T05:55:23.364Z,-2.66
2019-02-07T05:56:23.725Z,-2.65
2019-02-07T05:57:23.531Z,-2.66
2019-02-07T05:58:24.830Z,-2.69
2019-02-07T05:59:23.857Z,-2.64
2019-02-07T06:00:24.994Z,-2.67
2019-02-07T06:01:24.988Z,-2.64
2019-02-07T06:02:23.119Z,-2.67
2019-02-07T06:03:23.154Z,-2.66
2019-02-07T06:04:24.119Z,-2.72
2019-02-07T06:05:23.275Z,-2.67
2019-02-07T06:06:23.220Z,-2.69
2019-02-07T06:07:23.487Z,-2.65
2019-02-07T06:08:23.829Z,-2.7
2019-02-07T06:09:23.530Z,-2.69
2019-02-07T06:10:23.611Z,-2.69
2019-02-07T06:11:23.149Z,-2.74
2019-02-07T06:12:23.347Z,-2.72
2019-02-07T06:13:24.007Z,-2.74
2019-02-07T06:14:23.259Z,-2.76
2019-02-07T06:15:23.375Z,-2.77
2019-02-07T06:16:23.275Z,-2.77
2019-02-07T06:17:23.133Z,-2.75
2019-02-07T06:18:23.118Z,-2.73
2019-02-07T06:19:23.450Z,-2.73
2019-02-07T06:20:23.377Z,-2.76
2019-02-07T06:21:24.572Z,-2.79
2019-02-07T06:22:23.104Z,-2.8
2019-02-07T06:23:23.242Z,-2.8
2019-02-07T06:24:23.105Z,-2.78
2019-02-07T06:25:23.351Z,-2.76
2019-02-07T06:26:23.250Z,-2.77
2019-02-07T06:27:23.248Z,-2.77
2019-02-07T06:28:23.298Z,-2.75
2019-02-07T06:29:24.931Z,-2.79
2019-02-07T06:30:23.380Z,-2.78
2019-02-07T06:31:23.654Z,-2.73
2019-02-07T06:32:23.343Z,-2.75
2019-02-07T06:33:23.647Z,-2.75
2019-02-07T06:34:29.698Z,-2.72
2019-02-07T06:35:23.980Z,-2.76
2019-02-07T06:36:23.358Z,-2.76
2019-02-07T06:37:23.348Z,-2.75
2019-02-07T06:38:23.447Z,-2.77
2019-02-07T06:39:23.214Z,-2.76
2019-02-07T06:40:23.438Z,-2.77
2019-02-07T06:41:23.816Z,-2.78
2019-02-07T06:42:23.573Z,-2.79
2019-02-07T06:43:23.095Z,-2.77
2019-02-07T06:44:23.697Z,-2.79
2019-02-07T06:45:23.093Z,-2.79
2019-02-07T06:46:24.104Z,-2.81
2019-02-07T06:47:23.896Z,-2.79
2019-02-07T06:48:23.880Z,-2.8
2019-02-07T06:49:24.087Z,-2.83
2019-02-07T06:50:23.200Z,-2.79
2019-02-07T06:51:23.471Z,-2.79
2019-02-07T06:52:24.359Z,-2.77
2019-02-07T06:53:24.305Z,-2.77
2019-02-07T06:54:23.687Z,-2.8
2019-02-07T06:55:23.507Z,-2.78
2019-02-07T06:56:23.498Z,-2.81
2019-02-07T06:57:23.271Z,-2.82
2019-02-07T06:58:23.236Z,-2.81
2019-02-07T06:59:23.338Z,-2.78
2019-02-07T07:00:25.237Z,-2.83
2019-02-07T07:01:23.096Z,-2.81
2019-02-07T07:02:23.222Z,-2.8
2019-02-07T07:03:23.230Z,-2.78
2019-02-07T07:04:23.769Z,-2.8
2019-02-07T07:05:23.351Z,-2.78
2019-02-07T07:06:23.374Z,-2.77
2019-02-07T07:07:23.263Z,-2.77
2019-02-07T07:08:25.200Z,-2.75
2019-02-07T07:09:23.685Z,-2.73
2019-02-07T07:10:23.136Z,-2.75
2019-02-07T07:11:23.174Z,-2.77
2019-02-07T07:12:23.085Z,-2.74
2019-02-07T07:13:23.710Z,-2.75
2019-02-07T07:14:23.960Z,-2.75
2019-02-07T07:15:23.076Z,-2.75
2019-02-07T07:16:24.624Z,-2.79
2019-02-07T07:17:27.667Z,-2.78
2019-02-07T07:18:23.223Z,-2.79
2019-02-07T07:19:23.140Z,-2.77
2019-02-07T07:20:23.372Z,-2.74
2019-02-07T07:21:23.189Z,-2.77
2019-02-07T07:22:23.082Z,-2.76
2019-02-07T07:23:23.272Z,-2.78
2019-02-07T07:24:24.881Z,-2.73
2019-02-07T07:25:23.388Z,-2.72
2019-02-07T07:26:23.510Z,-2.72
2019-02-07T07:27:23.109Z,-2.72
2019-02-07T07:28:23.517Z,-2.7
2019-02-07T07:29:23.042Z,-2.7
2019-02-07T07:30:23.135Z,-2.71
2019-02-07T07:31:23.321Z,-2.72
2019-02-07T07:32:25.242Z,-2.73
2019-02-07T07:33:23.394Z,-2.7
2019-02-07T07:34:23.266Z,-2.71
2019-02-07T07:35:23.277Z,-2.68
2019-02-07T07:36:23.290Z,-2.68
2019-02-07T07:37:23.309Z,-2.63
2019-02-07T07:38:23.099Z,-2.67
2019-02-07T07:39:23.575Z,-2.65
2019-02-07T07:40:23.279Z,-2.63
2019-02-07T07:41:23.285Z,-2.63
2019-02-07T07:42:23.928Z,-2.6
2019-02-07T07:43:23.162Z,-2.59
2019-02-07T07:44:23.083Z,-2.61
2019-02-07T07:45:23.115Z,-2.59
2019-02-07T07:46:23.315Z,-2.57
2019-02-07T07:47:23.402Z,-2.61
2019-02-07T07:48:23.489Z,-2.62
2019-02-07T07:49:23.342Z,-2.57
2019-02-07T07:50:23.347Z,-2.56
2019-02-07T07:51:22.973Z,-2.56
2019-02-07T07:52:23.185Z,-2.55
2019-02-07T07:53:23.374Z,-2.57
2019-02-07T07:54:23.148Z,-2.6
2019-02-07T07:55:24.265Z,-2.57
2019-02-07T07:56:23.077Z,-2.56
2019-02-07T07:57:23.044Z,-2.53
2019-02-07T07:58:23.012Z,-2.51
2019-02-07T07:59:23.077Z,-2.52
2019-02-07T08:00:23.105Z,-2.48
2019-02-07T08:01:23.201Z,-2.46
2019-02-07T08:02:23.045Z,-2.44
2019-02-07T08:03:25.345Z,-2.47
2019-02-07T08:04:23.080Z,-2.42
2019-02-07T08:05:23.054Z,-2.4
2019-02-07T08:06:23.113Z,-2.41
2019-02-07T08:07:23.242Z,-2.38
2019-02-07T08:08:23.276Z,-2.33
2019-02-07T08:09:23.273Z,-2.31
2019-02-07T08:10:23.163Z,-2.26
2019-02-07T08:11:23.132Z,-2.22
2019-02-07T08:12:23.283Z,-2.21
2019-02-07T08:13:23.086Z,-2.22
2019-02-07T08:14:23.306Z,-2.18
2019-02-07T08:15:23.325Z,-2.16
2019-02-07T08:16:23.323Z,-2.21
2019-02-07T08:17:22.768Z,-2.19
2019-02-07T08:18:23.542Z,-2.21
2019-02-07T08:19:24.100Z,-2.18
2019-02-07T08:20:23.359Z,-2.17
2019-02-07T08:21:23.257Z,-2.2
2019-02-07T08:22:23.469Z,-2.27
2019-02-07T08:23:22.780Z,-2.27
2019-02-07T08:24:23.188Z,-2.21
2019-02-07T08:25:22.991Z,-2.09
2019-02-07T08:26:24.316Z,-2.16
2019-02-07T08:27:23.043Z,-2.12
2019-02-07T08:28:23.196Z,-2.14
2019-02-07T08:29:24.779Z,-2.16
2019-02-07T08:30:23.091Z,-2.21
2019-02-07T08:31:22.925Z,-2.17
2019-02-07T08:32:23.315Z,-2.17
2019-02-07T08:33:23.204Z,-2.09
2019-02-07T08:34:24.522Z,-2.08
2019-02-07T08:35:23.002Z,-2.07
2019-02-07T08:36:23.287Z,-2.01
2019-02-07T08:37:23.279Z,-2.03
2019-02-07T08:38:23.341Z,-2.02
2019-02-07T08:39:23.251Z,-2.07
2019-02-07T08:40:23.073Z,-2.07
2019-02-07T08:41:23.175Z,-2.04
2019-02-07T08:42:24.983Z,-2.04
2019-02-07T08:43:23.428Z,-2.05
2019-02-07T08:44:23.287Z,-2.1
2019-02-07T08:45:23.556Z,-2.05
2019-02-07T08:46:23.809Z,-2.1
2019-02-07T08:47:22.943Z,-2.1
2019-02-07T08:48:23.441Z,-2.15
2019-02-07T08:49:22.905Z,-2.06
2019-02-07T08:50:26.062Z,-2.13
2019-02-07T08:51:22.979Z,-2.06
2019-02-07T08:52:24.759Z,-2.03
2019-02-07T08:53:23.134Z,-2.02
2019-02-07T08:54:23.105Z,-2
2019-02-07T08:55:23.782Z,-1.97
2019-02-07T08:56:23.396Z,-1.97
2019-02-07T08:57:23.047Z,-1.98
2019-02-07T08:58:23.637Z,-1.99
2019-02-07T08:59:23.220Z,-1.98
2019-02-07T09:00:23.210Z,-1.93
2019-02-07T09:01:23.097Z,-1.92
2019-02-07T09:02:23.091Z,-1.94
2019-02-07T09:03:23.184Z,-1.85
2019-02-07T09:04:22.884Z,-1.83
2019-02-07T09:05:24.322Z,-1.82
2019-02-07T09:06:23.742Z,-1.88
2019-02-07T09:07:22.869Z,-1.79
2019-02-07T09:08:23.368Z,-1.84
2019-02-07T09:09:22.947Z,-1.78
2019-02-07T09:10:23.259Z,-1.77
2019-02-07T09:11:23.084Z,-1.8
2019-02-07T09:12:23.683Z,-1.78
2019-02-07T09:13:24.574Z,-1.76
2019-02-07T09:14:23.322Z,-1.82
2019-02-07T09:15:22.842Z,-1.72
2019-02-07T09:16:23.138Z,-1.72
2019-02-07T09:17:22.920Z,-1.72
2019-02-07T09:18:24.716Z,-1.73
2019-02-07T09:19:23.316Z,-1.75
2019-02-07T09:20:22.890Z,-1.73
2019-02-07T09:21:24.724Z,-1.66
2019-02-07T09:22:24.227Z,-1.64
2019-02-07T09:23:22.886Z,-1.61
2019-02-07T09:24:22.990Z,-1.63
2019-02-07T09:25:23.365Z,-1.68
2019-02-07T09:26:23.302Z,-1.66
2019-02-07T09:27:23.080Z,-1.65
2019-02-07T09:28:23.171Z,-1.59
2019-02-07T09:29:24.375Z,-1.55
2019-02-07T09:30:23.036Z,-1.59
2019-02-07T09:31:22.862Z,-1.61
2019-02-07T09:32:23.113Z,-1.55
2019-02-07T09:33:27.175Z,-1.57
2019-02-07T09:34:22.953Z,-1.61
2019-02-07T09:35:23.114Z,-1.56
2019-02-07T09:36:22.861Z,-1.6
2019-02-07T09:37:22.896Z,-1.61
2019-02-07T09:38:23.209Z,-1.61
2019-02-07T09:39:23.253Z,-1.57
2019-02-07T09:40:22.849Z,-1.51
2019-02-07T09:41:22.841Z,-1.48
2019-02-07T09:42:23.155Z,-1.44
2019-02-07T09:43:25.777Z,-1.47
2019-02-07T09:44:23.961Z,-1.51
2019-02-07T09:45:22.942Z,-1.41
2019-02-07T09:46:23.108Z,-1.37
2019-02-07T09:47:23.103Z,-1.37
2019-02-07T09:48:24.672Z,-1.3
2019-02-07T09:49:23.327Z,-1.31
2019-02-07T09:50:23.153Z,-1.3
2019-02-07T09:51:22.854Z,-1.34
2019-02-07T09:52:24.732Z,-1.33
2019-02-07T09:53:24.474Z,-1.28
2019-02-07T09:54:22.861Z,-1.28
2019-02-07T09:55:24.649Z,-1.23
2019-02-07T09:56:23.213Z,-1.29
2019-02-07T09:57:22.900Z,-1.25
2019-02-07T09:58:22.786Z,-1.22
2019-02-07T09:59:23.276Z,-1.16
2019-02-07T10:00:24.715Z,-1.19
2019-02-07T10:01:23.103Z,-1.16
2019-02-07T10:02:22.805Z,-1.17
2019-02-07T10:03:23.203Z,-1.15
2019-02-07T10:04:23.125Z,-1.21
2019-02-07T10:05:23.125Z,-1.18
2019-02-07T10:06:23.664Z,-1.17
2019-02-07T10:07:23.250Z,-1.2
2019-02-07T10:08:23.415Z,-1.1
2019-02-07T10:09:22.897Z,-1.06
2019-02-07T10:10:23.159Z,-1.02
2019-02-07T10:11:23.144Z,-1.01
2019-02-07T10:12:23.277Z,-1.01
2019-02-07T10:13:23.475Z,-1
2019-02-07T10:14:22.760Z,-0.99
2019-02-07T10:15:24.166Z,-1.07
2019-02-07T10:16:23.095Z,-1.03
2019-02-07T10:17:23.209Z,-1.09
2019-02-07T10:18:33.475Z,-1.08
2019-02-07T10:19:24.416Z,-1.03
2019-02-07T10:20:22.749Z,-1.03
2019-02-07T10:21:22.758Z,-1.02
2019-02-07T10:22:24.618Z,-0.9
2019-02-07T10:23:24.937Z,-0.89
2019-02-07T10:24:22.801Z,-0.94
2019-02-07T10:25:22.750Z,-0.99
2019-02-07T10:26:22.943Z,-1
2019-02-07T10:27:23.102Z,-0.92
2019-02-07T10:28:23.162Z,-0.87
2019-02-07T10:29:24.603Z,-0.86
2019-02-07T10:30:23.076Z,-0.89
2019-02-07T10:31:23.020Z,-0.87
2019-02-07T10:32:23.095Z,-0.92
2019-02-07T10:33:23.110Z,-0.87
2019-02-07T10:34:23.101Z,-0.81
2019-02-07T10:35:23.459Z,-0.81
2019-02-07T10:36:22.771Z,-0.79
2019-02-07T10:37:22.731Z,-0.77
2019-02-07T10:38:24.039Z,-0.75
2019-02-07T10:39:22.846Z,-0.71
2019-02-07T10:40:22.833Z,-0.69
2019-02-07T10:41:23.154Z,-0.64
2019-02-07T10:42:22.771Z,-0.56
2019-02-07T10:43:22.776Z,-0.59
2019-02-07T10:44:23.057Z,-0.66
2019-02-07T10:45:22.740Z,-0.59
2019-02-07T10:46:24.373Z,-0.55
2019-02-07T10:47:22.741Z,-0.53
2019-02-07T10:48:22.536Z,-0.64
2019-02-07T10:49:23.104Z,-0.53
2019-02-07T10:50:23.122Z,-0.51
2019-02-07T10:51:23.329Z,-0.59
2019-02-07T10:52:22.789Z,-0.63
2019-02-07T10:53:22.736Z,-0.57
2019-02-07T10:54:24.426Z,-0.51
2019-02-07T10:55:24.562Z,-0.45
2019-02-07T10:56:22.756Z,-0.45
2019-02-07T10:57:24.541Z,-0.51
2019-02-07T10:58:25.816Z,-0.48
2019-02-07T10:59:22.838Z,-0.6
2019-02-07T11:00:24.567Z,-0.52
2019-02-07T11:01:24.541Z,-0.54
2019-02-07T11:02:24.665Z,-0.5
2019-02-07T11:03:22.978Z,-0.39
2019-02-07T11:04:22.853Z,-0.26
2019-02-07T11:05:22.859Z,-0.19
2019-02-07T11:06:22.793Z,-0.21
2019-02-07T11:07:22.879Z,-0.2
2019-02-07T11:08:22.983Z,-0.15
2019-02-07T11:09:22.710Z,-0.13
2019-02-07T11:10:22.858Z,-0.08
2019-02-07T11:11:23.116Z,0.02
2019-02-07T11:12:23.061Z,0.05
2019-02-07T11:13:22.692Z,0.06
2019-02-07T11:14:23.155Z,0.01
2019-02-07T11:15:22.763Z,0.17
2019-02-07T11:16:23.058Z,0.18
2019-02-07T11:17:23.701Z,0.28
2019-02-07T11:18:22.811Z,0.22
2019-02-07T11:19:23.077Z,0.32
2019-02-07T11:20:22.689Z,0.29
2019-02-07T11:21:22.774Z,0.37
2019-02-07T11:22:23.392Z,0.35
2019-02-07T11:23:22.912Z,0.38
2019-02-07T11:24:22.680Z,0.27
2019-02-07T11:25:23.507Z,0.26
2019-02-07T11:26:22.726Z,0.29
2019-02-07T11:27:22.771Z,0.33
2019-02-07T11:28:22.736Z,0.37
2019-02-07T11:29:23.370Z,0.32
2019-02-07T11:30:22.790Z,0.41
2019-02-07T11:31:22.754Z,0.48
2019-02-07T11:32:22.872Z,0.45
2019-02-07T11:33:24.073Z,0.41
2019-02-07T11:34:22.746Z,0.47
2019-02-07T11:35:22.858Z,0.38
2019-02-07T11:36:22.709Z,0.42
2019-02-07T11:37:23.123Z,0.3
2019-02-07T11:38:23.021Z,0.33
2019-02-07T11:39:22.805Z,0.43
2019-02-07T11:40:22.622Z,0.35
2019-02-07T11:41:24.433Z,0.4
2019-02-07T11:42:22.779Z,0.47
2019-02-07T11:43:22.693Z,0.48
2019-02-07T11:44:23.157Z,0.45
2019-02-07T11:45:22.484Z,0.34
2019-02-07T11:46:23.168Z,0.33
2019-02-07T11:47:23.077Z,0.4
2019-02-07T11:48:22.726Z,0.46
2019-02-07T11:49:24.073Z,0.44
2019-02-07T11:50:23.315Z,0.53
2019-02-07T11:51:23.610Z,0.49
2019-02-07T11:52:23.225Z,0.49
2019-02-07T11:53:23.120Z,0.58
2019-02-07T11:54:23.124Z,0.67
2019-02-07T11:55:25.337Z,0.72
2019-02-07T11:56:23.674Z,0.74
2019-02-07T11:57:22.965Z,0.87
2019-02-07T11:58:23.140Z,0.88
2019-02-07T11:59:22.782Z,1.06
2019-02-07T12:00:22.660Z,1.08
2019-02-07T12:01:23.193Z,1.19
2019-02-07T12:02:22.731Z,1.22
2019-02-07T12:03:22.753Z,1.31
2019-02-07T12:04:22.707Z,1.33
2019-02-07T12:05:25.101Z,1.33
2019-02-07T12:06:23.006Z,1.35
2019-02-07T12:07:24.440Z,1.33
2019-02-07T12:08:22.459Z,1.35
2019-02-07T12:09:23.109Z,1.32
2019-02-07T12:10:23.998Z,1.35
2019-02-07T12:11:23.125Z,1.4
2019-02-07T12:12:23.762Z,1.41
2019-02-07T12:13:22.729Z,1.36
2019-02-07T12:14:23.239Z,1.39
2019-02-07T12:15:23.263Z,1.39
2019-02-07T12:16:23.067Z,1.28
2019-02-07T12:17:23.329Z,1.34
2019-02-07T12:18:23.076Z,1.42
2019-02-07T12:19:22.818Z,1.46
2019-02-07T12:20:24.665Z,1.42
2019-02-07T12:21:22.977Z,1.44
2019-02-07T12:22:24.450Z,1.58
2019-02-07T12:23:22.716Z,1.66
2019-02-07T12:24:23.419Z,1.59
2019-02-07T12:25:22.642Z,1.66
2019-02-07T12:26:24.436Z,1.69
2019-02-07T12:27:22.393Z,1.69
2019-02-07T12:28:24.637Z,1.77
2019-02-07T12:29:22.861Z,1.8
2019-02-07T12:30:22.819Z,1.74
2019-02-07T12:31:24.411Z,1.79
2019-02-07T12:32:23.285Z,1.83
2019-02-07T12:33:22.634Z,1.78
2019-02-07T12:34:22.725Z,1.72
2019-02-07T12:35:22.769Z,1.67
2019-02-07T12:36:23.084Z,1.72
2019-02-07T12:37:22.579Z,1.84
2019-02-07T12:38:22.934Z,1.88
2019-02-07T12:39:22.721Z,1.8
2019-02-07T12:40:22.742Z,1.8
2019-02-07T12:41:23.122Z,1.79
2019-02-07T12:42:22.966Z,1.71
2019-02-07T12:43:23.611Z,1.81
2019-02-07T12:44:22.505Z,1.74
2019-02-07T12:45:23.155Z,1.7
2019-02-07T12:46:22.647Z,1.57
2019-02-07T12:47:23.067Z,1.59
2019-02-07T12:48:22.507Z,1.51
2019-02-07T12:49:29.831Z,1.51
2019-02-07T12:50:22.585Z,1.62
2019-02-07T12:51:23.451Z,1.54
2019-02-07T12:52:22.844Z,1.56
2019-02-07T12:53:22.798Z,1.55
2019-02-07T12:54:22.549Z,1.57
2019-02-07T12:55:22.635Z,1.53
2019-02-07T12:56:22.922Z,1.52
2019-02-07T12:57:22.543Z,1.54
2019-02-07T12:58:22.381Z,1.53